PWSweather.com
Personal Weather Stations
Station Observations
KPAGREEN17
Chestnut Hill Farm, Greensburg, PA 15601

Chestnut Hill FarmGreensburg, PA 15601

Lat: 40.32, Lon: -79.55

Elevation: 1148

Station Type: OR 968

Latest ConditionsUpdated 11:30:04 PM EDT Wednesday, Oct 22, 2014
Currently Today's Max Today's Min Today's Average
Temperature 46.9°F8.3°C 50.2°F10.1°C 46.9°F8.3°C 48.7°F9.3°C
Dew Point 40.8°F4.9°C 49.5°F9.7°C 40.3°F4.6°C 44.4°F6.9°C
Winds 1.2 mph SE1.9 kmh SE 3.5 mph NE5.6 kmh NE - 1.1 mph 1.8 kmh
Wind Gusts 1.2 mph1.9 kmh 6.9 mph11.1 kmh - -
Humidity 79% 100% 73% 86%
Pressure 30.19 in1022.4 mb 30.22 in1023.4 mb 30.04 in1017.3 mb -
Precipitation - 0.12 in3.0 mm - -
Hour Temp Dew Point Humidity Winds Wind Gusts Pressure Precip Precip Rate Daily Precip Total
11:30 PM 46.9°F8.3°C 40.8°F4.9°C 79% 1.2 mph SE1.9 kmh SE 1.2 mph1.9 kmh 30.19 in1022.4 mb 0.00 in0.0 mm 0.00 in/hr0.0 mm/hr 0.12 in3.0 mm
11:15 PM 47.1°F8.4°C 40.9°F4.9°C 79% Calm Calm 1.2 mph1.9 kmh 30.19 in1022.4 mb 0.00 in0.0 mm 0.00 in/hr0.0 mm/hr 0.12 in3.0 mm
11:00 PM 47.1°F8.4°C 40.9°F4.9°C 79% 1.2 mph NW1.9 kmh NW 1.2 mph1.9 kmh 30.19 in1022.4 mb 0.00 in0.0 mm 0.00 in/hr0.0 mm/hr 0.12 in3.0 mm
10:45 PM 47.3°F8.5°C 40.8°F4.9°C 78% Calm Calm -- 30.19 in1022.4 mb 0.00 in0.0 mm 0.00 in/hr0.0 mm/hr 0.12 in3.0 mm
10:30 PM 47.5°F8.6°C 41.0°F5.0°C 78% 1.2 mph 1.9 kmh 2.3 mph3.7 kmh 30.19 in1022.4 mb 0.00 in0.0 mm 0.00 in/hr0.0 mm/hr 0.12 in3.0 mm
10:15 PM 47.5°F8.6°C 41.0°F5.0°C 78% 1.2 mph W1.9 kmh W 3.5 mph5.6 kmh 30.19 in1022.4 mb 0.00 in0.0 mm 0.00 in/hr0.0 mm/hr 0.12 in3.0 mm
10:00 PM 47.5°F8.6°C 41.0°F5.0°C 78% 2.3 mph N3.7 kmh N 2.3 mph3.7 kmh 30.22 in1023.4 mb 0.00 in0.0 mm 0.00 in/hr0.0 mm/hr 0.12 in3.0 mm
09:45 PM 47.7°F8.7°C 41.1°F5.1°C 78% 1.2 mph NW1.9 kmh NW 2.3 mph3.7 kmh 30.22 in1023.4 mb 0.00 in0.0 mm 0.00 in/hr0.0 mm/hr 0.12 in3.0 mm
09:30 PM 47.7°F8.7°C 40.8°F4.9°C 77% Calm Calm 2.3 mph3.7 kmh 30.22 in1023.4 mb 0.00 in0.0 mm 0.00 in/hr0.0 mm/hr 0.12 in3.0 mm
09:15 PM 47.8°F8.8°C 40.6°F4.8°C 76% 1.2 mph NNE1.9 kmh NNE 2.3 mph3.7 kmh 30.22 in1023.4 mb 0.00 in0.0 mm 0.00 in/hr0.0 mm/hr 0.12 in3.0 mm
09:00 PM 47.8°F8.8°C 40.3°F4.6°C 75% 1.2 mph NNW1.9 kmh NNW 1.2 mph1.9 kmh 30.22 in1023.4 mb 0.00 in0.0 mm 0.00 in/hr0.0 mm/hr 0.12 in3.0 mm
08:45 PM 47.9°F8.8°C 40.3°F4.6°C 75% 2.3 mph W3.7 kmh W 5.8 mph9.3 kmh 30.19 in1022.4 mb 0.00 in0.0 mm 0.00 in/hr0.0 mm/hr 0.12 in3.0 mm
08:30 PM 48.0°F8.9°C 40.5°F4.7°C 75% 3.5 mph N5.6 kmh N 4.6 mph7.4 kmh 30.19 in1022.4 mb 0.00 in0.0 mm 0.00 in/hr0.0 mm/hr 0.12 in3.0 mm
08:15 PM 48.4°F9.1°C 40.8°F4.9°C 75% 1.2 mph NE1.9 kmh NE 3.5 mph5.6 kmh 30.19 in1022.4 mb 0.00 in0.0 mm 0.00 in/hr0.0 mm/hr 0.12 in3.0 mm
08:00 PM 48.4°F9.1°C 40.8°F4.9°C 75% 1.2 mph N1.9 kmh N 2.3 mph3.7 kmh 30.19 in1022.4 mb 0.00 in0.0 mm 0.00 in/hr0.0 mm/hr 0.12 in3.0 mm
07:45 PM 48.7°F9.3°C 41.2°F5.1°C 75% 1.2 mph N1.9 kmh N 3.5 mph5.6 kmh 30.19 in1022.4 mb 0.00 in0.0 mm 0.00 in/hr0.0 mm/hr 0.12 in3.0 mm
07:30 PM 48.9°F9.4°C 41.4°F5.2°C 75% 2.3 mph N3.7 kmh N 2.3 mph3.7 kmh 30.19 in1022.4 mb 0.00 in0.0 mm 0.00 in/hr0.0 mm/hr 0.12 in3.0 mm
07:15 PM 49.3°F9.6°C 41.7°F5.4°C 75% 1.2 mph NW1.9 kmh NW 2.3 mph3.7 kmh 30.19 in1022.4 mb 0.00 in0.0 mm 0.00 in/hr0.0 mm/hr 0.12 in3.0 mm
07:00 PM 49.5°F9.7°C 41.9°F5.5°C 75% Calm Calm 1.2 mph1.9 kmh 30.16 in1021.3 mb 0.00 in0.0 mm 0.00 in/hr0.0 mm/hr 0.12 in3.0 mm
06:45 PM 49.6°F9.8°C 41.7°F5.4°C 74% Calm Calm 1.2 mph1.9 kmh 30.19 in1022.4 mb 0.00 in0.0 mm 0.00 in/hr0.0 mm/hr 0.12 in3.0 mm
06:30 PM 49.8°F9.9°C 41.9°F5.5°C 74% 1.2 mph N1.9 kmh N 3.5 mph5.6 kmh 30.19 in1022.4 mb 0.00 in0.0 mm 0.00 in/hr0.0 mm/hr 0.12 in3.0 mm
06:15 PM 49.8°F9.9°C 41.9°F5.5°C 74% 1.2 mph WSW1.9 kmh WSW 1.2 mph1.9 kmh 30.16 in1021.3 mb 0.00 in0.0 mm 0.00 in/hr0.0 mm/hr 0.12 in3.0 mm
06:00 PM 50.0°F10.0°C 42.0°F5.6°C 74% Calm Calm 1.2 mph1.9 kmh 30.16 in1021.3 mb 0.00 in0.0 mm 0.00 in/hr0.0 mm/hr 0.12 in3.0 mm
05:45 PM 50.0°F10.0°C 42.0°F5.6°C 74% Calm Calm 1.2 mph1.9 kmh 30.19 in1022.4 mb 0.00 in0.0 mm 0.00 in/hr0.0 mm/hr 0.12 in3.0 mm
05:30 PM 50.0°F10.0°C 42.0°F5.6°C 74% Calm Calm -- 30.19 in1022.4 mb 0.00 in0.0 mm 0.00 in/hr0.0 mm/hr 0.12 in3.0 mm
05:15 PM 50.0°F10.0°C 41.7°F5.4°C 73% Calm Calm -- 30.19 in1022.4 mb 0.00 in0.0 mm 0.00 in/hr0.0 mm/hr 0.12 in3.0 mm
05:00 PM 50.2°F10.1°C 41.8°F5.4°C 73% 1.2 mph 1.9 kmh 3.5 mph5.6 kmh 30.19 in1022.4 mb 0.00 in0.0 mm 0.00 in/hr0.0 mm/hr 0.12 in3.0 mm
04:45 PM 50.2°F10.1°C 42.2°F5.7°C 74% 1.2 mph W1.9 kmh W 2.3 mph3.7 kmh 30.19 in1022.4 mb 0.00 in0.0 mm 0.00 in/hr0.0 mm/hr 0.12 in3.0 mm
04:30 PM 50.0°F10.0°C 42.0°F5.6°C 74% 1.2 mph N1.9 kmh N 2.3 mph3.7 kmh 30.19 in1022.4 mb 0.00 in0.0 mm 0.00 in/hr0.0 mm/hr 0.12 in3.0 mm
04:15 PM 49.8°F9.9°C 41.9°F5.5°C 74% 2.3 mph 3.7 kmh 3.5 mph5.6 kmh 30.19 in1022.4 mb 0.00 in0.0 mm 0.00 in/hr0.0 mm/hr 0.12 in3.0 mm
04:00 PM 50.0°F10.0°C 41.6°F5.3°C 73% 2.3 mph NE3.7 kmh NE 3.5 mph5.6 kmh 30.19 in1022.4 mb 0.00 in0.0 mm 0.00 in/hr0.0 mm/hr 0.12 in3.0 mm
03:45 PM 50.0°F10.0°C 42.0°F5.6°C 74% 1.2 mph N1.9 kmh N 1.2 mph1.9 kmh 30.19 in1022.4 mb 0.00 in0.0 mm 0.00 in/hr0.0 mm/hr 0.12 in3.0 mm
03:30 PM 49.9°F9.9°C 42.0°F5.6°C 74% 1.2 mph N1.9 kmh N 3.5 mph5.6 kmh 30.19 in1022.4 mb 0.00 in0.0 mm 0.00 in/hr0.0 mm/hr 0.12 in3.0 mm
03:15 PM 49.8°F9.9°C 41.9°F5.5°C 74% 1.2 mph 1.9 kmh 6.9 mph11.1 kmh 30.19 in1022.4 mb 0.00 in0.0 mm 0.00 in/hr0.0 mm/hr 0.12 in3.0 mm
03:00 PM 49.8°F9.9°C 41.9°F5.5°C 74% 2.3 mph NW3.7 kmh NW 2.3 mph3.7 kmh 30.19 in1022.4 mb 0.00 in0.0 mm 0.00 in/hr0.0 mm/hr 0.12 in3.0 mm
02:45 PM 49.9°F9.9°C 42.3°F5.7°C 75% 3.5 mph NE5.6 kmh NE 6.9 mph11.1 kmh 30.19 in1022.4 mb 0.00 in0.0 mm 0.00 in/hr0.0 mm/hr 0.12 in3.0 mm
02:30 PM 50.2°F10.1°C 42.9°F6.1°C 76% 1.2 mph N1.9 kmh N 3.5 mph5.6 kmh 30.16 in1021.3 mb 0.00 in0.0 mm 0.00 in/hr0.0 mm/hr 0.12 in3.0 mm
02:15 PM 50.2°F10.1°C 42.9°F6.1°C 76% 2.3 mph 3.7 kmh 2.3 mph3.7 kmh 30.19 in1022.4 mb 0.00 in0.0 mm 0.00 in/hr0.0 mm/hr 0.12 in3.0 mm
02:00 PM 50.2°F10.1°C 43.2°F6.2°C 77% Calm Calm -- 30.19 in1022.4 mb 0.00 in0.0 mm 0.00 in/hr0.0 mm/hr 0.12 in3.0 mm
01:45 PM 49.8°F9.9°C 42.6°F5.9°C 76% 1.2 mph N1.9 kmh N 2.3 mph3.7 kmh 30.19 in1022.4 mb 0.00 in0.0 mm 0.00 in/hr0.0 mm/hr 0.12 in3.0 mm
01:30 PM 49.8°F9.9°C 43.2°F6.2°C 78% 1.2 mph N1.9 kmh N 4.6 mph7.4 kmh 30.19 in1022.4 mb 0.00 in0.0 mm 0.00 in/hr0.0 mm/hr 0.12 in3.0 mm
01:15 PM 49.8°F9.9°C 43.2°F6.2°C 78% Calm Calm -- 30.19 in1022.4 mb 0.00 in0.0 mm 0.00 in/hr0.0 mm/hr 0.12 in3.0 mm
01:00 PM 49.6°F9.8°C 43.1°F6.2°C 78% 2.3 mph NW3.7 kmh NW 3.5 mph5.6 kmh 30.19 in1022.4 mb 0.00 in0.0 mm 0.00 in/hr0.0 mm/hr 0.12 in3.0 mm
12:45 PM 49.5°F9.7°C 43.9°F6.6°C 81% 2.3 mph N3.7 kmh N 3.5 mph5.6 kmh 30.19 in1022.4 mb 0.00 in0.0 mm 0.00 in/hr0.0 mm/hr 0.12 in3.0 mm
12:30 PM 49.1°F9.5°C 43.6°F6.4°C 81% 1.2 mph NNE1.9 kmh NNE 2.3 mph3.7 kmh 30.19 in1022.4 mb 0.00 in0.0 mm 0.00 in/hr0.0 mm/hr 0.12 in3.0 mm
12:15 PM 49.1°F9.5°C 44.2°F6.8°C 83% 1.2 mph W1.9 kmh W 1.2 mph1.9 kmh 30.19 in1022.4 mb 0.00 in0.0 mm 0.00 in/hr0.0 mm/hr 0.12 in3.0 mm
12:00 PM 48.9°F9.4°C 44.0°F6.7°C 83% 1.2 mph N1.9 kmh N 2.3 mph3.7 kmh 30.19 in1022.4 mb 0.00 in0.0 mm 0.00 in/hr0.0 mm/hr 0.12 in3.0 mm
11:45 AM 48.7°F9.3°C 43.8°F6.6°C 83% 1.2 mph NW1.9 kmh NW 6.9 mph11.1 kmh 30.19 in1022.4 mb 0.00 in0.0 mm 0.00 in/hr0.0 mm/hr 0.12 in3.0 mm
11:30 AM 48.6°F9.2°C 44.3°F6.8°C 85% 1.2 mph WSW1.9 kmh WSW 1.2 mph1.9 kmh 30.19 in1022.4 mb 0.00 in0.0 mm 0.00 in/hr0.0 mm/hr 0.12 in3.0 mm
11:15 AM 48.3°F9.1°C 44.3°F6.8°C 86% 2.3 mph NE3.7 kmh NE 2.3 mph3.7 kmh 30.19 in1022.4 mb 0.00 in0.0 mm 0.00 in/hr0.0 mm/hr 0.12 in3.0 mm
11:00 AM 48.0°F8.9°C 44.3°F6.8°C 87% 1.2 mph N1.9 kmh N 4.6 mph7.4 kmh 30.19 in1022.4 mb 0.00 in0.0 mm 0.00 in/hr0.0 mm/hr 0.12 in3.0 mm
10:45 AM 47.7°F8.7°C 44.3°F6.8°C 88% 2.3 mph NNW3.7 kmh NNW 1.2 mph1.9 kmh 30.19 in1022.4 mb 0.00 in0.0 mm 0.00 in/hr0.0 mm/hr 0.12 in3.0 mm
10:30 AM 47.7°F8.7°C 44.3°F6.8°C 88% 2.3 mph NNW3.7 kmh NNW 5.8 mph9.3 kmh 30.19 in1022.4 mb 0.00 in0.0 mm 0.00 in/hr0.0 mm/hr 0.12 in3.0 mm
10:15 AM 47.8°F8.8°C 44.5°F6.9°C 88% 1.2 mph SE1.9 kmh SE 3.5 mph5.6 kmh 30.19 in1022.4 mb 0.00 in0.0 mm 0.00 in/hr0.0 mm/hr 0.12 in3.0 mm
10:00 AM 47.7°F8.7°C 44.3°F6.8°C 88% 2.3 mph N3.7 kmh N 2.3 mph3.7 kmh 30.19 in1022.4 mb 0.00 in0.0 mm 0.00 in/hr0.0 mm/hr 0.12 in3.0 mm
09:45 AM 47.8°F8.8°C 44.5°F6.9°C 88% 2.3 mph E3.7 kmh E 3.5 mph5.6 kmh 30.16 in1021.3 mb 0.00 in0.0 mm 0.00 in/hr0.0 mm/hr 0.12 in3.0 mm
09:30 AM 47.7°F8.7°C 44.6°F7.0°C 89% 2.3 mph NW3.7 kmh NW 2.3 mph3.7 kmh 30.16 in1021.3 mb 0.00 in0.0 mm 0.00 in/hr0.0 mm/hr 0.12 in3.0 mm
09:15 AM 47.7°F8.7°C 44.6°F7.0°C 89% 3.5 mph N5.6 kmh N 4.6 mph7.4 kmh 30.16 in1021.3 mb 0.00 in0.0 mm 0.00 in/hr0.0 mm/hr 0.12 in3.0 mm
09:00 AM 47.7°F8.7°C 44.6°F7.0°C 89% Calm Calm 1.2 mph1.9 kmh 30.16 in1021.3 mb 0.00 in0.0 mm 0.00 in/hr0.0 mm/hr 0.12 in3.0 mm
08:45 AM 47.7°F8.7°C 44.6°F7.0°C 89% 2.3 mph ESE3.7 kmh ESE 3.5 mph5.6 kmh 30.16 in1021.3 mb 0.00 in0.0 mm 0.00 in/hr0.0 mm/hr 0.12 in3.0 mm
08:30 AM 47.5°F8.6°C 44.4°F6.9°C 89% Calm Calm -- 30.16 in1021.3 mb 0.00 in0.0 mm 0.00 in/hr0.0 mm/hr 0.12 in3.0 mm
08:15 AM 47.5°F8.6°C 44.7°F7.1°C 90% Calm Calm 3.5 mph5.6 kmh 30.13 in1020.3 mb 0.00 in0.0 mm 0.00 in/hr0.0 mm/hr 0.12 in3.0 mm
08:00 AM 47.5°F8.6°C 44.7°F7.1°C 90% 1.2 mph N1.9 kmh N 2.3 mph3.7 kmh 30.13 in1020.3 mb 0.00 in0.0 mm 0.00 in/hr0.0 mm/hr 0.12 in3.0 mm
07:45 AM 47.7°F8.7°C 45.5°F7.5°C 92% 1.2 mph 1.9 kmh 2.3 mph3.7 kmh 30.13 in1020.3 mb 0.00 in0.0 mm 0.00 in/hr0.0 mm/hr 0.12 in3.0 mm
07:30 AM 47.8°F8.8°C 45.6°F7.6°C 92% Calm Calm 1.2 mph1.9 kmh 30.13 in1020.3 mb 0.00 in0.0 mm 0.00 in/hr0.0 mm/hr 0.12 in3.0 mm
07:15 AM 48.0°F8.9°C 46.1°F7.8°C 93% Calm Calm 1.2 mph1.9 kmh 30.13 in1020.3 mb 0.00 in0.0 mm 0.00 in/hr0.0 mm/hr 0.12 in3.0 mm
07:00 AM 48.0°F8.9°C 46.1°F7.8°C 93% 1.2 mph NE1.9 kmh NE 1.2 mph1.9 kmh 30.13 in1020.3 mb 0.00 in0.0 mm 0.00 in/hr0.0 mm/hr 0.12 in3.0 mm
06:45 AM 48.2°F9.0°C 46.6°F8.1°C 94% 1.2 mph N1.9 kmh N 2.3 mph3.7 kmh 30.13 in1020.3 mb 0.00 in0.0 mm 0.00 in/hr0.0 mm/hr 0.12 in3.0 mm
06:30 AM 48.2°F9.0°C 47.1°F8.4°C 96% Calm Calm 1.2 mph1.9 kmh 30.10 in1019.3 mb 0.00 in0.0 mm 0.00 in/hr0.0 mm/hr 0.12 in3.0 mm
06:15 AM 48.4°F9.1°C 47.6°F8.7°C 97% Calm Calm 3.5 mph5.6 kmh 30.10 in1019.3 mb 0.00 in0.0 mm 0.00 in/hr0.0 mm/hr 0.12 in3.0 mm
06:00 AM 48.4°F9.1°C 48.4°F9.1°C 100% Calm Calm 2.3 mph3.7 kmh 30.10 in1019.3 mb 0.00 in0.0 mm 0.00 in/hr0.0 mm/hr 0.12 in3.0 mm
05:45 AM 48.6°F9.2°C 48.6°F9.2°C 100% Calm Calm 6.9 mph11.1 kmh 30.10 in1019.3 mb 0.00 in0.0 mm 0.00 in/hr0.0 mm/hr 0.12 in3.0 mm
05:30 AM 48.7°F9.3°C 48.7°F9.3°C 100% 2.3 mph WSW3.7 kmh WSW 5.8 mph9.3 kmh 30.10 in1019.3 mb 0.00 in0.0 mm 0.00 in/hr0.0 mm/hr 0.12 in3.0 mm
05:15 AM 48.9°F9.4°C 48.9°F9.4°C 100% 1.2 mph N1.9 kmh N 1.2 mph1.9 kmh 30.07 in1018.3 mb 0.00 in0.0 mm 0.00 in/hr0.0 mm/hr 0.12 in3.0 mm
05:00 AM 49.1°F9.5°C 49.1°F9.5°C 100% 1.2 mph N1.9 kmh N 2.3 mph3.7 kmh 30.07 in1018.3 mb 0.00 in0.0 mm 0.00 in/hr0.0 mm/hr 0.12 in3.0 mm
04:45 AM 49.3°F9.6°C 49.3°F9.6°C 100% 1.2 mph N1.9 kmh N 2.3 mph3.7 kmh 30.07 in1018.3 mb 0.00 in0.0 mm 0.00 in/hr0.0 mm/hr 0.12 in3.0 mm
04:30 AM 49.3°F9.6°C 49.3°F9.6°C 100% 1.2 mph N1.9 kmh N 3.5 mph5.6 kmh 30.07 in1018.3 mb 0.00 in0.0 mm 0.00 in/hr0.0 mm/hr 0.12 in3.0 mm
04:15 AM 49.5°F9.7°C 49.5°F9.7°C 100% 1.2 mph 1.9 kmh 1.2 mph1.9 kmh 30.07 in1018.3 mb 0.00 in0.0 mm 0.00 in/hr0.0 mm/hr 0.12 in3.0 mm
04:00 AM 49.5°F9.7°C 49.5°F9.7°C 100% 2.3 mph 3.7 kmh 3.5 mph5.6 kmh 30.07 in1018.3 mb 0.00 in0.0 mm 0.00 in/hr0.0 mm/hr 0.12 in3.0 mm
03:45 AM 49.3°F9.6°C 49.3°F9.6°C 100% Calm Calm 3.5 mph5.6 kmh 30.04 in1017.3 mb 0.00 in0.0 mm 0.00 in/hr0.0 mm/hr 0.12 in3.0 mm
03:30 AM 49.3°F9.6°C 49.3°F9.6°C 100% Calm Calm 1.2 mph1.9 kmh 30.04 in1017.3 mb 0.00 in0.0 mm 0.00 in/hr0.0 mm/hr 0.12 in3.0 mm
03:15 AM 49.1°F9.5°C 49.1°F9.5°C 100% Calm Calm 2.3 mph3.7 kmh 30.04 in1017.3 mb 0.00 in0.0 mm 0.00 in/hr0.0 mm/hr 0.12 in3.0 mm
03:00 AM 48.9°F9.4°C 48.9°F9.4°C 100% 1.2 mph NNW1.9 kmh NNW 2.3 mph3.7 kmh 30.04 in1017.3 mb 0.00 in0.0 mm 0.00 in/hr0.0 mm/hr 0.12 in3.0 mm
02:45 AM 48.7°F9.3°C 48.7°F9.3°C 100% Calm Calm -- 30.04 in1017.3 mb 0.00 in0.0 mm 0.00 in/hr0.0 mm/hr 0.12 in3.0 mm
02:30 AM 48.6°F9.2°C 48.6°F9.2°C 100% Calm Calm 1.2 mph1.9 kmh 30.04 in1017.3 mb 0.00 in0.0 mm 0.00 in/hr0.0 mm/hr 0.12 in3.0 mm
02:15 AM 48.4°F9.1°C 48.4°F9.1°C 100% 1.2 mph SW1.9 kmh SW 2.3 mph3.7 kmh 30.04 in1017.3 mb 0.00 in0.0 mm 0.00 in/hr0.0 mm/hr 0.12 in3.0 mm
02:00 AM 48.4°F9.1°C 48.4°F9.1°C 100% Calm Calm -- 30.04 in1017.3 mb 0.00 in0.0 mm 0.00 in/hr0.0 mm/hr 0.12 in3.0 mm
01:45 AM 48.4°F9.1°C 48.4°F9.1°C 100% Calm Calm 1.2 mph1.9 kmh 30.04 in1017.3 mb 0.00 in0.0 mm 0.00 in/hr0.0 mm/hr 0.12 in3.0 mm
01:30 AM 48.2°F9.0°C 48.2°F9.0°C 100% Calm Calm -- 30.04 in1017.3 mb 0.04 in1.0 mm 0.16 in/hr4.1 mm/hr 0.12 in3.0 mm
01:15 AM 48.2°F9.0°C 48.2°F9.0°C 100% 1.2 mph 1.9 kmh 1.2 mph1.9 kmh 30.04 in1017.3 mb 0.00 in0.0 mm 0.00 in/hr0.0 mm/hr 0.08 in2.0 mm
01:00 AM 48.2°F9.0°C 48.2°F9.0°C 100% Calm Calm -- 30.04 in1017.3 mb 0.00 in0.0 mm 0.00 in/hr0.0 mm/hr 0.08 in2.0 mm
12:45 AM 48.2°F9.0°C 48.2°F9.0°C 100% Calm Calm 1.2 mph1.9 kmh 30.04 in1017.3 mb 0.00 in0.0 mm 0.00 in/hr0.0 mm/hr 0.08 in2.0 mm
12:30 AM 48.2°F9.0°C 48.2°F9.0°C 100% 1.2 mph ENE1.9 kmh ENE 2.3 mph3.7 kmh 30.07 in1018.3 mb 0.04 in1.0 mm 0.16 in/hr4.1 mm/hr 0.08 in2.0 mm
12:15 AM 48.4°F9.1°C 48.4°F9.1°C 100% 1.2 mph ESE1.9 kmh ESE 2.3 mph3.7 kmh 30.07 in1018.3 mb 0.04 in1.0 mm 0.16 in/hr4.1 mm/hr 0.04 in1.0 mm
12:00 AM 48.4°F9.1°C 48.4°F9.1°C 100% Calm Calm -- 30.07 in1018.3 mb 0.00 in0.0 mm 0.00 in/hr0.0 mm/hr 0.00 in0.0 mm